Allegan, Michigan
Current Conditions -  °F | °C
As of 1:53 AM on Thursday 18 Dec 2014 (Local Time) from KBIV Reporting Station
Overcast Overcast  
Wind Chill: 25°   Ceiling: 2100
Heat Index: 32°   Visibility: 10mi
Dew Point: 23°   Wind: 8mph
Humidity: 69%   Direction: 280°W
Pressure: 30.23"   Gusts: NA
Location:  42.53°N, 85.86°W
Report Text: KBIV 180653Z AUTO 28007KT 10SM OVC021 00/M05 A3023 RMK AO2 SLP245 T00001050
Loading
Personal Weather Stations






























Interactive Weather Map New forecast layout! Learn more

10-Day Weather Forecast

Advertisements
Track Severe Weather on mobile